Mc Comas, West Virginia
Current Conditions -  °F | °C
As of 12:52 PM on Monday 22 Dec 2014 (Local Time) from KBLF Reporting Station
Overcast Overcast  
Wind Chill: 33°   Ceiling: 700
Heat Index: 39°   Visibility: 10mi
Dew Point: 33°   Wind: 9mph
Humidity: 79%   Direction: 140°SE
Pressure: 30"   Gusts: NA
Location:  37.3892°N, 81.2383°W
Report Text: KBLF 221752Z AUTO 14008KT 10SM OVC007 04/01 A3000 RMK AO2 SLP164 60000 T00390006 10044 20022 58024
Loading
Personal Weather Stations






























Interactive Weather Map New forecast layout! Learn more

10-Day Weather Forecast

Advertisements
Track Severe Weather on mobile